首页
METAR-TAF:

METAR-TAF

机场 :

伊基托斯, 秘鲁

纬度: 03-45S, 经度: 073-15W, 海拔: 125米

当前天气观测

该预报发布于22分钟前的01:00 UTC
风速2节,风向多变
温度 26°C
湿度 89%
气压 1010 hPa
能见度10公里或以上
少量云层高于400英尺
多云层高于10000英尺

METAR: SPQT 250100Z VRB02KT 9999 FEW004 BKN100 26/24 Q1010 NOSIG RMK PP000

时间: 20:22 (01:22 UTC)

预报

该预报发布于2小时和22分钟前的23:00 UTC
预报有效从25日的 00点(UTC)到 25日的 24点(UTC)
风速2节,风向多变
能见度10公里或以上
散云层高于2000英尺
多云层高于10000英尺
成为
从 25日的 02点(UTC)到 25日的 04点(UTC)
散云层高于500英尺
散云层高于10000英尺
短暂存在
从 25日的 08点(UTC)到 25日的 12点(UTC)
能見度: 0500
多云层高于200英尺
多云层高于10000英尺
短暂存在
从 25日的 19点(UTC)到 25日的 23点(UTC)
风速15节,风向
能見度: 2000
多云层高于1200英尺
少量云层高于2500英尺, 塔状积云.
阵雨,

TAF: SPQT 242300Z 2500/2524 VRB02KT 9999 SCT020 BKN100 TX34/2519Z TN23/2511Z BECMG 2502/2504 SCT005 SCT100 TEMPO 2508/2512 0500 FG BKN002 BKN100 TEMPO 2519/2523 09015KT 2000 SHRA BKN012 FEW025TCU

超过4000个机场的气象观测和天气预报(METAR&TAF报告)。

可查询的气象台以黄色和红色小点在地图上表示。

将鼠标移到小点上方,可查看气象台名称。

然后点击查看天气观测和预报。

如需切换地图:点击带黑十字的绿色按钮放大地图;点击带横线的绿色按钮缩小地图;或者点击绿色箭头查看邻近地区的地图。


METAR-TAF: